Time;durP1;ratioP1;P1;durP2;ratioP2;P2;SDS_P1;SDS_P2;PMS_P1;PMS_P2;Temp;Humidity;BMP_temperature;BMP_pressure;BME280_temperature;BME280_humidity;BME280_pressure;Samples;Min_cycle;Max_cycle;Signal;HPM_P1;HPM_P2
2022/01/04 05:00:21;;;;;;;1.70;1.47;;;11.60;99.90;;;;;;6039754;23;21202;-73
2022/01/04 05:02:47;;;;;;;1.40;1.30;;;11.60;99.90;;;;;;4977194;28;20521;-73
2022/01/04 05:05:14;;;;;;;1.37;1.27;;;11.50;99.90;;;;;;4977528;28;20456;-73
2022/01/04 05:07:41;;;;;;;0.97;0.97;;;11.50;99.90;;;;;;4977340;28;20459;-73
2022/01/04 05:10:09;;;;;;;1.60;1.50;;;11.50;99.90;;;;;;4977571;28;20453;-73
2022/01/04 05:12:36;;;;;;;1.10;1.10;;;11.50;99.90;;;;;;4957945;28;20462;-73
2022/01/04 05:15:04;;;;;;;1.47;1.37;;;11.60;99.90;;;;;;4957509;28;20488;-73
2022/01/04 05:17:32;;;;;;;2.23;1.93;;;11.50;99.90;;;;;;4957632;28;20467;-71
2022/01/04 05:19:59;;;;;;;1.53;1.43;;;11.50;99.90;;;;;;4957649;28;20480;-72
2022/01/04 05:22:26;;;;;;;1.20;1.20;;;11.40;99.90;;;;;;4957627;28;20485;-72
2022/01/04 05:24:52;;;;;;;1.33;1.03;;;11.40;99.90;;;;;;4957751;28;20447;-72
2022/01/04 05:27:19;;;;;;;1.10;1.10;;;11.30;99.90;;;;;;4957387;28;20464;-73
2022/01/04 05:29:46;;;;;;;1.23;1.13;;;11.30;99.90;;;;;;4957468;28;20831;-70
2022/01/04 05:32:12;;;;;;;1.27;1.20;;;11.40;99.90;;;;;;4957466;28;20487;-70
2022/01/04 05:34:40;;;;;;;1.47;1.23;;;11.40;99.90;;;;;;4957359;28;20466;-70
2022/01/04 05:37:07;;;;;;;2.20;1.00;;;11.40;99.90;;;;;;4957356;28;20462;-70
2022/01/04 05:39:34;;;;;;;1.20;1.20;;;11.40;99.90;;;;;;4957140;28;20488;-70
2022/01/04 05:42:01;;;;;;;1.20;1.10;;;11.40;99.90;;;;;;4957063;28;20869;-70
2022/01/04 05:44:27;;;;;;;1.30;1.30;;;11.30;99.90;;;;;;4957181;28;20468;-70
2022/01/04 05:46:54;;;;;;;1.43;1.30;;;11.30;99.90;;;;;;4957430;28;20477;-70
2022/01/04 05:49:21;;;;;;;1.30;1.30;;;11.40;99.90;;;;;;4957266;28;20459;-70
2022/01/04 05:51:49;;;;;;;1.13;1.03;;;11.40;99.90;;;;;;4957136;28;20870;-71
2022/01/04 05:54:15;;;;;;;1.30;1.20;;;11.30;99.90;;;;;;4957066;28;20519;-71
2022/01/04 05:56:42;;;;;;;1.30;1.30;;;11.20;99.90;;;;;;4957162;28;20469;-71
2022/01/04 05:59:09;;;;;;;3.97;1.97;;;11.20;99.90;;;;;;4957124;28;20486;-72
2022/01/04 06:01:36;;;;;;;1.20;1.20;;;11.10;99.90;;;;;;4956351;28;20988;-72
2022/01/04 06:04:02;;;;;;;1.47;1.17;;;11.10;99.90;;;;;;4957003;28;20810;-72
2022/01/04 06:06:29;;;;;;;1.07;1.07;;;11.10;99.90;;;;;;4956488;28;20977;-72
2022/01/04 06:08:58;;;;;;;1.80;1.17;;;11.10;99.90;;;;;;4956749;28;20466;-71
2022/01/04 06:11:44;;;;;;;1.17;1.17;;;11.00;99.90;;;;;;4956877;28;20511;-71
2022/01/04 06:16:55;;;;;;;1.10;1.00;;;11.10;99.90;;;;;;4957270;29;20422;-71
2022/01/04 06:19:22;;;;;;;1.47;0.97;;;11.10;99.90;;;;;;4956977;28;20485;-70
2022/01/04 06:21:49;;;;;;;1.37;1.27;;;11.10;99.90;;;;;;4958056;28;20477;-69
2022/01/04 06:24:17;;;;;;;1.63;1.13;;;11.20;99.90;;;;;;4958525;28;20466;-70
2022/01/04 06:26:44;;;;;;;1.60;1.50;;;11.20;99.90;;;;;;4957951;28;20462;-69
2022/01/04 06:29:11;;;;;;;1.10;1.10;;;11.20;99.90;;;;;;4957246;28;20443;-70
2022/01/04 06:31:39;;;;;;;1.73;1.20;;;11.20;99.90;;;;;;4957184;28;20510;-71
2022/01/04 06:34:06;;;;;;;1.20;1.07;;;11.20;99.90;;;;;;4956791;28;20458;-71
2022/01/04 06:36:32;;;;;;;1.30;1.20;;;11.20;99.90;;;;;;4956804;28;20461;-70
2022/01/04 06:38:59;;;;;;;1.50;1.50;;;11.20;99.90;;;;;;4956450;28;20465;-70
2022/01/04 06:41:27;;;;;;;1.10;1.10;;;11.30;99.90;;;;;;4956607;28;20859;-70
2022/01/04 06:43:54;;;;;;;1.17;1.07;;;11.30;99.90;;;;;;4957260;28;20457;-70
2022/01/04 06:46:21;;;;;;;1.20;1.20;;;11.30;99.90;;;;;;4956350;28;20793;-70
2022/01/04 06:48:48;;;;;;;1.33;1.33;;;11.30;99.90;;;;;;4956145;28;20458;-70
2022/01/04 06:51:14;;;;;;;1.20;1.20;;;11.40;99.90;;;;;;4955968;28;20477;-70
2022/01/04 06:53:41;;;;;;;2.10;1.00;;;11.40;99.90;;;;;;4958471;28;20455;-70
2022/01/04 06:56:08;;;;;;;1.33;1.20;;;11.30;99.90;;;;;;4964712;28;20455;-70
2022/01/04 06:58:36;;;;;;;1.20;1.20;;;11.30;99.90;;;;;;4963335;28;20865;-70
2022/01/04 07:01:03;;;;;;;1.30;1.30;;;11.30;99.90;;;;;;4956887;28;20565;-71
2022/01/04 07:03:30;;;;;;;1.73;1.60;;;11.30;99.90;;;;;;4956561;28;20458;-70
2022/01/04 07:05:57;;;;;;;1.13;1.13;;;11.20;99.90;;;;;;4955985;28;20467;-70
2022/01/04 07:08:24;;;;;;;1.53;1.40;;;11.20;99.90;;;;;;4956569;28;20466;-71
2022/01/04 07:10:51;;;;;;;1.07;1.07;;;11.20;99.90;;;;;;4956850;28;20840;-70
2022/01/04 07:13:17;;;;;;;1.13;1.10;;;11.30;99.90;;;;;;4956605;28;20465;-71
2022/01/04 07:15:47;;;;;;;1.30;1.23;;;11.20;99.90;;;;;;4958954;28;20915;-75
2022/01/04 07:18:14;;;;;;;1.43;1.37;;;11.30;99.90;;;;;;4956828;28;20465;-70
2022/01/04 07:20:40;;;;;;;1.20;1.20;;;11.30;99.90;;;;;;4957574;28;20490;-71
2022/01/04 07:23:07;;;;;;;1.03;1.03;;;11.30;99.90;;;;;;4962488;28;20459;-71
2022/01/04 07:25:35;;;;;;;1.73;1.40;;;11.30;99.90;;;;;;4959863;28;20459;-74
2022/01/04 07:28:01;;;;;;;1.40;1.40;;;11.40;99.90;;;;;;4966244;28;20455;-71
2022/01/04 07:30:28;;;;;;;1.30;1.20;;;11.40;99.90;;;;;;4965899;28;20487;-71
2022/01/04 07:32:57;;;;;;;1.37;1.27;;;11.40;99.90;;;;;;4962663;28;20466;-70
2022/01/04 07:35:23;;;;;;;1.20;1.20;;;11.40;99.90;;;;;;4959998;28;20536;-71
2022/01/04 07:37:50;;;;;;;1.20;1.20;;;11.40;99.90;;;;;;4960148;28;20465;-71
2022/01/04 07:40:17;;;;;;;1.47;1.33;;;11.40;99.90;;;;;;4959821;28;20478;-72
2022/01/04 07:42:44;;;;;;;1.20;1.20;;;11.40;99.90;;;;;;4960073;28;20826;-72
2022/01/04 07:45:11;;;;;;;3.37;1.13;;;11.40;99.90;;;;;;4961454;28;20463;-72
2022/01/04 07:47:40;;;;;;;1.10;1.10;;;11.40;99.90;;;;;;4962813;28;20869;-71
2022/01/04 07:50:10;;;;;;;1.20;1.20;;;11.40;99.90;;;;;;4963056;28;20462;-72
2022/01/04 07:52:37;;;;;;;1.00;1.00;;;11.40;99.90;;;;;;4962819;28;20466;-71
2022/01/04 07:55:05;;;;;;;1.30;1.20;;;11.50;99.90;;;;;;4963792;28;20468;-72
2022/01/04 07:57:31;;;;;;;0.87;0.87;;;11.50;99.90;;;;;;4962877;28;20462;-72
2022/01/04 07:59:58;;;;;;;1.77;1.00;;;11.60;99.90;;;;;;4962650;28;20484;-72
2022/01/04 08:02:25;;;;;;;1.30;1.00;;;11.60;99.90;;;;;;4964476;28;20490;-72
2022/01/04 08:04:51;;;;;;;1.07;1.07;;;11.60;99.90;;;;;;4961019;28;20462;-72
2022/01/04 08:07:20;;;;;;;2.50;1.30;;;11.60;99.90;;;;;;4960260;28;20463;-73
2022/01/04 08:09:46;;;;;;;0.90;0.90;;;11.70;99.90;;;;;;4960487;28;20821;-73
2022/01/04 08:12:13;;;;;;;0.80;0.80;;;11.70;99.90;;;;;;4963098;28;20483;-74
2022/01/04 08:14:40;;;;;;;1.20;1.10;;;11.80;99.90;;;;;;4967046;28;20458;-74
2022/01/04 08:17:07;;;;;;;0.90;0.90;;;11.80;99.90;;;;;;4962958;28;20459;-73
2022/01/04 08:19:34;;;;;;;1.43;1.10;;;11.90;99.90;;;;;;4963194;28;20458;-72
2022/01/04 08:22:01;;;;;;;1.23;0.93;;;11.90;99.90;;;;;;4961473;28;20479;-75
2022/01/04 08:24:29;;;;;;;1.83;1.07;;;11.90;99.90;;;;;;4958763;28;20826;-74
2022/01/04 08:26:56;;;;;;;2.03;1.17;;;11.90;99.90;;;;;;4959301;28;20467;-75
2022/01/04 08:29:24;;;;;;;0.80;0.80;;;12.00;99.90;;;;;;4958652;28;20943;-75
2022/01/04 08:31:51;;;;;;;2.20;1.10;;;12.00;99.90;;;;;;4958976;28;20477;-74
2022/01/04 08:34:18;;;;;;;1.00;1.00;;;12.10;99.90;;;;;;4958521;28;20858;-74
2022/01/04 08:36:45;;;;;;;0.80;0.80;;;12.10;99.90;;;;;;4958685;28;20455;-73
2022/01/04 08:39:14;;;;;;;0.90;0.90;;;12.10;99.90;;;;;;4958713;28;20943;-72
2022/01/04 08:41:42;;;;;;;1.20;1.10;;;12.20;99.90;;;;;;4959496;28;20599;-72
2022/01/04 08:44:09;;;;;;;0.80;0.80;;;12.10;99.90;;;;;;4958916;28;20462;-72
2022/01/04 08:46:36;;;;;;;1.43;0.80;;;12.20;99.90;;;;;;4959380;28;20851;-72
2022/01/04 08:49:04;;;;;;;1.10;1.00;;;12.20;99.90;;;;;;4958627;28;20822;-72
2022/01/04 08:51:31;;;;;;;0.80;0.80;;;12.20;99.90;;;;;;4958687;28;20476;-72
2022/01/04 08:53:58;;;;;;;0.90;0.90;;;12.20;99.90;;;;;;4958460;28;20459;-72
2022/01/04 08:56:26;;;;;;;2.50;1.37;;;12.20;99.90;;;;;;4958653;28;20463;-72
2022/01/04 08:58:54;;;;;;;1.10;0.83;;;12.30;99.90;;;;;;4958508;28;20458;-72
2022/01/04 09:01:21;;;;;;;0.80;0.80;;;12.30;99.90;;;;;;4958915;28;20558;-71
2022/01/04 09:03:48;;;;;;;1.30;1.10;;;12.40;99.90;;;;;;4958594;28;20459;-71
2022/01/04 09:06:15;;;;;;;3.33;1.20;;;12.40;99.90;;;;;;4958595;28;20463;-72
2022/01/04 09:08:43;;;;;;;1.80;1.07;;;12.40;99.90;;;;;;4958321;28;20461;-72
2022/01/04 09:11:10;;;;;;;1.20;1.10;;;12.40;99.90;;;;;;4958863;28;20476;-72
2022/01/04 09:13:39;;;;;;;1.37;1.27;;;12.40;99.90;;;;;;4958701;28;20466;-72
2022/01/04 09:18:53;;;;;;;1.13;1.07;;;12.50;99.90;;;;;;4958383;29;20443;-72
2022/01/04 09:21:23;;;;;;;1.10;1.10;;;12.50;99.90;;;;;;4958025;28;20494;-72
2022/01/04 09:23:51;;;;;;;0.90;0.90;;;12.50;99.90;;;;;;4957876;28;20807;-73
2022/01/04 09:26:19;;;;;;;1.03;1.00;;;12.50;99.90;;;;;;4957396;28;20458;-74
2022/01/04 09:28:47;;;;;;;1.30;1.20;;;12.50;99.90;;;;;;4957569;28;20832;-74
2022/01/04 09:31:15;;;;;;;1.17;1.00;;;12.50;99.90;;;;;;4957371;28;20480;-73
2022/01/04 09:33:42;;;;;;;2.20;1.00;;;12.50;99.90;;;;;;4957252;28;20457;-73
2022/01/04 09:36:09;;;;;;;1.70;1.23;;;12.50;99.90;;;;;;4957640;28;20460;-74
2022/01/04 09:38:36;;;;;;;1.57;1.10;;;12.40;99.90;;;;;;4957784;28;20824;-74
2022/01/04 09:41:04;;;;;;;2.90;1.60;;;12.40;99.90;;;;;;4957642;28;20485;-73
2022/01/04 09:43:31;;;;;;;1.10;0.97;;;12.40;99.90;;;;;;4957723;28;20955;-74
2022/01/04 09:45:58;;;;;;;1.67;1.17;;;12.40;99.90;;;;;;4957509;28;20463;-74
2022/01/04 09:48:26;;;;;;;3.60;1.33;;;12.40;99.90;;;;;;4957714;28;20969;-73
2022/01/04 09:50:55;;;;;;;1.33;1.30;;;12.40;99.90;;;;;;4956684;28;20975;-73
2022/01/04 09:53:22;;;;;;;0.93;0.93;;;12.50;99.90;;;;;;4957449;28;20468;-74
2022/01/04 09:55:50;;;;;;;2.10;1.40;;;12.50;99.90;;;;;;4957431;28;20772;-74
2022/01/04 09:58:18;;;;;;;1.13;1.03;;;12.50;99.90;;;;;;4957259;28;20460;-74
2022/01/04 10:00:45;;;;;;;1.37;1.00;;;12.40;99.90;;;;;;4957114;28;21021;-74
2022/01/04 10:03:14;;;;;;;1.60;0.93;;;12.40;99.90;;;;;;4958862;28;20787;-74
2022/01/04 10:05:42;;;;;;;1.70;1.27;;;12.40;99.90;;;;;;4961765;28;20440;-74
2022/01/04 10:08:11;;;;;;;0.97;0.97;;;12.40;99.90;;;;;;4958435;28;20460;-74
2022/01/04 10:10:39;;;;;;;1.50;1.20;;;12.40;99.90;;;;;;4957374;28;20476;-73
2022/01/04 10:13:09;;;;;;;1.70;1.33;;;12.50;99.90;;;;;;4957088;28;20459;-74
2022/01/04 10:15:40;;;;;;;2.33;1.00;;;12.40;99.90;;;;;;4957628;28;20455;-74
2022/01/04 10:18:23;;;;;;;1.03;0.93;;;12.40;99.90;;;;;;4956644;28;20444;-72
2022/01/04 10:21:10;;;;;;;2.07;1.30;;;12.40;99.90;;;;;;4956208;28;21041;-72
2022/01/04 10:23:46;;;;;;;1.23;1.23;;;12.50;99.90;;;;;;4956788;28;20562;-72
2022/01/04 10:26:13;;;;;;;1.17;1.10;;;12.50;99.90;;;;;;4956253;28;20972;-72
2022/01/04 10:28:43;;;;;;;1.20;1.20;;;12.50;99.90;;;;;;4956532;28;20455;-72
2022/01/04 10:31:12;;;;;;;1.30;1.20;;;12.50;99.90;;;;;;4956276;28;20496;-71
2022/01/04 10:33:39;;;;;;;2.53;2.33;;;12.60;99.90;;;;;;4956301;28;20459;-74
2022/01/04 10:36:11;;;;;;;1.00;1.00;;;12.60;99.90;;;;;;4956434;28;20465;-74
2022/01/04 10:38:40;;;;;;;1.63;1.40;;;12.50;99.90;;;;;;4956746;28;20450;-73
2022/01/04 10:41:10;;;;;;;1.23;1.23;;;12.60;99.90;;;;;;4956475;28;20498;-73
2022/01/04 10:43:43;;;;;;;0.93;0.93;;;12.60;99.90;;;;;;4956852;28;20462;-74
2022/01/04 10:46:11;;;;;;;2.00;1.40;;;12.60;99.90;;;;;;4956752;28;20444;-74
2022/01/04 10:48:41;;;;;;;1.17;1.00;;;12.60;99.90;;;;;;4956921;28;20464;-74
2022/01/04 10:51:10;;;;;;;1.30;1.20;;;12.70;99.90;;;;;;4956700;28;20478;-72
2022/01/04 10:53:39;;;;;;;1.50;1.23;;;12.70;99.90;;;;;;4956995;28;20459;-72
2022/01/04 10:56:08;;;;;;;1.87;1.50;;;12.70;99.90;;;;;;4956221;28;20539;-72
2022/01/04 10:58:38;;;;;;;1.60;1.60;;;12.70;99.90;;;;;;4956258;28;20953;-72
2022/01/04 11:01:07;;;;;;;1.20;1.20;;;12.70;99.90;;;;;;4960324;28;20498;-71
2022/01/04 11:03:36;;;;;;;1.67;1.57;;;12.70;99.90;;;;;;4963030;28;20456;-71
2022/01/04 11:06:06;;;;;;;2.37;2.17;;;12.70;99.90;;;;;;4960681;28;20459;-72
2022/01/04 11:08:35;;;;;;;1.93;1.63;;;12.70;99.90;;;;;;4958948;28;20454;-71
2022/01/04 11:11:03;;;;;;;3.53;2.00;;;12.80;99.90;;;;;;4956083;28;20929;-73
2022/01/04 11:13:29;;;;;;;1.20;1.20;;;12.70;99.90;;;;;;4956172;28;20472;-73
2022/01/04 11:15:56;;;;;;;10.40;1.80;;;12.70;99.90;;;;;;4956362;28;20456;-71
2022/01/04 11:18:24;;;;;;;1.50;1.40;;;12.70;99.90;;;;;;4955880;28;20464;-71
2022/01/04 11:20:52;;;;;;;2.93;1.50;;;12.80;99.90;;;;;;4955540;28;21014;-71
2022/01/04 11:23:23;;;;;;;1.77;1.33;;;12.80;99.90;;;;;;4955872;28;20481;-71
2022/01/04 11:25:53;;;;;;;1.30;1.20;;;12.80;99.90;;;;;;4956276;28;20445;-71
2022/01/04 11:28:20;;;;;;;1.93;1.47;;;12.80;99.90;;;;;;4955743;28;20457;-71
2022/01/04 11:31:02;;;;;;;1.60;1.50;;;12.80;99.90;;;;;;4955666;28;20471;-73
2022/01/04 11:33:33;;;;;;;1.53;1.40;;;12.80;99.90;;;;;;4956126;28;20843;-72
2022/01/04 11:36:01;;;;;;;1.50;1.40;;;12.70;99.90;;;;;;4956151;28;20447;-73
2022/01/04 11:38:32;;;;;;;1.53;1.43;;;12.80;99.90;;;;;;4956822;28;20465;-73
2022/01/04 11:41:01;;;;;;;3.70;1.90;;;12.80;99.90;;;;;;4956311;28;20857;-72
2022/01/04 11:43:30;;;;;;;1.73;1.63;;;12.80;99.90;;;;;;4956286;28;20461;-72
2022/01/04 11:45:57;;;;;;;2.00;1.90;;;12.80;99.90;;;;;;4955901;28;20526;-73
2022/01/04 11:48:29;;;;;;;1.50;1.30;;;12.80;99.90;;;;;;4955660;28;20460;-73
2022/01/04 11:50:58;;;;;;;1.87;1.77;;;12.80;99.90;;;;;;4955586;28;20478;-73
2022/01/04 11:53:25;;;;;;;4.23;1.90;;;12.80;99.90;;;;;;4955807;28;20937;-73
2022/01/04 11:55:54;;;;;;;2.30;2.20;;;12.80;99.90;;;;;;4955881;28;20457;-73
2022/01/04 11:58:27;;;;;;;2.80;2.47;;;12.80;99.90;;;;;;4956094;28;20455;-73
2022/01/04 12:01:00;;;;;;;3.33;2.17;;;12.80;99.90;;;;;;4956533;28;20493;-73
2022/01/04 12:03:41;;;;;;;1.77;1.67;;;12.80;99.90;;;;;;4956606;28;20450;-73
2022/01/04 12:06:09;;;;;;;2.40;1.97;;;12.70;99.90;;;;;;4956390;28;20475;-74
2022/01/04 12:08:39;;;;;;;1.53;1.53;;;12.70;99.90;;;;;;4955902;28;20456;-74
2022/01/04 12:11:20;;;;;;;1.80;1.50;;;12.80;99.90;;;;;;4956648;28;20476;-73
2022/01/04 12:13:50;;;;;;;1.80;1.70;;;12.70;99.90;;;;;;4957827;28;20451;-72
2022/01/04 12:16:31;;;;;;;2.20;2.03;;;12.70;99.90;;;;;;4959709;28;20445;-73
2022/01/04 12:18:58;;;;;;;3.23;1.77;;;12.80;99.90;;;;;;4959227;28;20447;-73
2022/01/04 12:21:37;;;;;;;3.10;1.53;;;12.70;99.90;;;;;;4959582;28;20549;-73
2022/01/04 12:24:05;;;;;;;3.93;2.23;;;12.80;99.90;;;;;;4959523;28;20452;-73
2022/01/04 12:26:33;;;;;;;1.70;1.60;;;12.70;99.90;;;;;;4959506;28;20463;-74
2022/01/04 12:29:20;;;;;;;2.13;2.03;;;12.70;99.90;;;;;;4959392;28;20470;-73
2022/01/04 12:31:49;;;;;;;1.93;1.80;;;12.60;99.90;;;;;;4960151;28;20530;-73
2022/01/04 12:34:35;;;;;;;1.60;1.60;;;12.60;99.90;;;;;;4959652;28;20458;-73
2022/01/04 12:37:03;;;;;;;1.93;1.73;;;12.50;99.90;;;;;;4959761;28;20927;-73
2022/01/04 12:39:49;;;;;;;1.90;1.80;;;12.60;99.90;;;;;;4970961;28;20513;-73
2022/01/04 12:42:18;;;;;;;3.83;1.80;;;12.60;99.90;;;;;;4972535;28;20478;-73
2022/01/04 12:44:55;;;;;;;1.73;1.63;;;12.60;99.90;;;;;;4966300;28;20559;-71
2022/01/04 12:47:22;;;;;;;1.93;1.70;;;12.60;99.90;;;;;;4958890;28;20444;-71
2022/01/04 12:49:49;;;;;;;2.00;1.90;;;12.50;99.90;;;;;;4958268;28;20457;-71
2022/01/04 12:52:19;;;;;;;1.43;1.30;;;12.50;99.90;;;;;;4957982;28;20472;-71
2022/01/04 12:54:46;;;;;;;3.33;1.77;;;12.60;99.90;;;;;;4958499;28;20448;-71
2022/01/04 12:57:15;;;;;;;1.80;1.63;;;12.50;99.90;;;;;;4958407;28;20486;-71
2022/01/04 12:59:43;;;;;;;1.80;1.70;;;12.50;99.90;;;;;;4958176;28;20466;-71
2022/01/04 13:02:15;;;;;;;1.83;1.70;;;12.50;99.90;;;;;;4957731;28;20484;-71
2022/01/04 13:04:45;;;;;;;1.80;1.70;;;12.50;99.90;;;;;;4959275;28;20495;-71
2022/01/04 13:07:27;;;;;;;2.43;1.90;;;12.40;99.90;;;;;;4957924;28;20536;-72
2022/01/04 13:09:57;;;;;;;2.00;1.90;;;12.40;99.90;;;;;;4958329;28;20865;-72
2022/01/04 13:12:26;;;;;;;2.10;2.00;;;12.30;99.90;;;;;;4957998;28;20476;-71
2022/01/04 13:14:54;;;;;;;2.30;2.20;;;12.30;99.90;;;;;;4957876;28;20473;-71
2022/01/04 13:17:22;;;;;;;2.10;2.00;;;12.30;99.90;;;;;;4958667;28;20477;-72
2022/01/04 13:19:50;;;;;;;5.00;2.37;;;12.20;99.90;;;;;;4957724;28;20440;-71
2022/01/04 13:22:20;;;;;;;2.93;2.40;;;12.10;99.90;;;;;;4957635;28;20857;-72
2022/01/04 13:24:49;;;;;;;3.50;2.07;;;12.10;99.90;;;;;;4958247;28;20457;-72
2022/01/04 13:27:36;;;;;;;1.63;1.53;;;12.10;99.90;;;;;;4960423;28;20465;-72
2022/01/04 13:30:08;;;;;;;2.17;2.07;;;12.10;99.90;;;;;;4960831;28;20439;-72
2022/01/04 13:32:37;;;;;;;4.27;2.23;;;12.10;99.90;;;;;;4961474;28;20472;-72
2022/01/04 13:35:08;;;;;;;5.20;2.30;;;12.10;99.90;;;;;;4960669;28;20456;-72
2022/01/04 13:37:36;;;;;;;1.80;1.70;;;12.10;99.90;;;;;;4960420;28;20432;-71
2022/01/04 13:40:07;;;;;;;1.93;1.83;;;12.10;99.90;;;;;;4959945;28;20795;-71
2022/01/04 13:42:38;;;;;;;8.20;2.20;;;12.10;99.90;;;;;;4960073;28;20488;-71
2022/01/04 13:45:17;;;;;;;4.13;2.50;;;12.20;99.90;;;;;;4959610;28;20444;-72
2022/01/04 13:47:47;;;;;;;1.33;1.20;;;12.20;99.90;;;;;;4959155;28;20440;-72
2022/01/04 13:50:20;;;;;;;1.47;0.97;;;12.00;99.90;;;;;;4960381;28;20442;-71
2022/01/04 13:53:03;;;;;;;0.90;0.90;;;11.70;99.90;;;;;;4958803;28;20442;-71
2022/01/04 13:55:58;;;;;;;0.80;0.80;;;11.20;99.90;;;;;;4958924;28;20904;-71
2022/01/04 13:58:43;;;;;;;3.60;0.97;;;10.70;99.90;;;;;;4959435;28;20442;-72
2022/01/04 14:01:15;;;;;;;0.93;0.90;;;10.40;99.90;;;;;;4957109;28;20488;-72
2022/01/04 14:03:44;;;;;;;2.53;1.03;;;10.20;99.90;;;;;;4957058;28;20461;-72
2022/01/04 14:06:32;;;;;;;2.20;1.93;;;10.00;99.90;;;;;;4956871;28;20467;-72
2022/01/04 14:09:00;;;;;;;1.73;1.63;;;9.80;99.90;;;;;;4956943;28;20457;-72
2022/01/04 14:11:28;;;;;;;1.40;1.30;;;9.50;99.90;;;;;;4957359;28;20483;-72
2022/01/04 14:13:55;;;;;;;0.90;0.87;;;9.20;99.90;;;;;;4957803;28;20456;-72
2022/01/04 14:16:23;;;;;;;1.50;1.40;;;9.10;99.90;;;;;;4959709;28;20456;-72
2022/01/04 14:19:06;;;;;;;1.27;1.27;;;8.90;99.90;;;;;;4960773;28;20487;-71
2022/01/04 14:21:34;;;;;;;1.10;1.10;;;8.80;99.90;;;;;;4959616;28;21001;-72
2022/01/04 14:24:02;;;;;;;1.03;1.00;;;8.70;99.90;;;;;;4960590;28;20464;-72
2022/01/04 14:26:28;;;;;;;0.90;0.90;;;8.50;99.90;;;;;;4959515;28;20471;-72
2022/01/04 14:28:56;;;;;;;0.90;0.90;;;8.40;99.90;;;;;;4961110;28;20519;-71
2022/01/04 14:31:23;;;;;;;1.40;1.40;;;8.30;99.90;;;;;;4960710;28;20484;-71
2022/01/04 14:33:50;;;;;;;1.37;1.37;;;8.30;99.90;;;;;;4961302;28;20459;-71
2022/01/04 14:36:18;;;;;;;1.20;1.20;;;8.20;99.90;;;;;;4959849;28;20459;-72
2022/01/04 14:38:45;;;;;;;1.50;1.50;;;8.20;99.90;;;;;;4959131;28;20457;-72
2022/01/04 14:41:12;;;;;;;6.17;4.83;;;8.20;99.90;;;;;;4957227;28;20503;-72
2022/01/04 14:43:39;;;;;;;2.00;1.90;;;8.30;99.90;;;;;;4956828;28;20491;-72
2022/01/04 14:46:06;;;;;;;2.20;1.80;;;8.30;99.90;;;;;;4956538;28;20462;-72
2022/01/04 14:48:32;;;;;;;2.57;2.47;;;8.40;99.90;;;;;;4956599;28;20464;-73
2022/01/04 14:51:00;;;;;;;1.77;1.70;;;8.40;99.90;;;;;;4956337;28;20480;-71
2022/01/04 14:53:28;;;;;;;1.60;1.60;;;8.40;99.90;;;;;;4956009;28;20451;-70
2022/01/04 14:55:55;;;;;;;1.40;1.40;;;8.40;99.90;;;;;;4956258;28;20460;-72
2022/01/04 14:58:22;;;;;;;2.23;1.70;;;8.40;99.90;;;;;;4956268;28;20456;-70
2022/01/04 15:00:48;;;;;;;1.20;1.20;;;8.40;99.90;;;;;;4955518;28;20483;-70
2022/01/04 15:03:15;;;;;;;1.27;1.10;;;8.30;99.90;;;;;;4956464;28;20480;-70
2022/01/04 15:05:42;;;;;;;1.50;0.90;;;8.20;99.90;;;;;;4955810;28;20820;-70
2022/01/04 15:08:08;;;;;;;0.60;0.60;;;8.10;99.90;;;;;;4956183;28;20460;-71
2022/01/04 15:10:37;;;;;;;1.00;1.00;;;8.00;99.90;;;;;;4956484;28;20978;-70
2022/01/04 15:13:04;;;;;;;0.70;0.70;;;8.00;99.90;;;;;;4955996;28;20474;-71
2022/01/04 15:15:31;;;;;;;1.20;0.90;;;7.90;99.90;;;;;;4955715;28;20444;-71
2022/01/04 15:17:58;;;;;;;0.80;0.80;;;7.90;99.90;;;;;;4955385;28;20939;-71
2022/01/04 15:20:25;;;;;;;1.00;1.00;;;7.90;99.90;;;;;;4955778;28;20467;-71
2022/01/04 15:22:52;;;;;;;0.80;0.80;;;7.90;99.90;;;;;;4955621;28;20484;-70
2022/01/04 15:25:23;;;;;;;1.10;1.10;;;7.90;99.90;;;;;;4955429;28;20456;-70
2022/01/04 15:27:53;;;;;;;1.13;1.03;;;7.80;99.90;;;;;;4955708;28;20803;-70
2022/01/04 15:30:21;;;;;;;0.63;0.63;;;7.70;99.90;;;;;;4955475;28;20440;-71
2022/01/04 15:32:48;;;;;;;1.00;0.90;;;7.70;99.90;;;;;;4955761;28;20466;-70
2022/01/04 15:35:15;;;;;;;0.97;0.97;;;7.60;99.90;;;;;;4955306;28;20456;-70
2022/01/04 15:37:41;;;;;;;1.33;1.23;;;7.50;99.90;;;;;;4955654;28;20815;-70
2022/01/04 15:40:13;;;;;;;1.07;1.07;;;7.50;99.90;;;;;;4955310;28;20936;-70
2022/01/04 15:42:41;;;;;;;1.57;1.13;;;7.50;99.90;;;;;;4955891;28;20480;-71
2022/01/04 15:45:10;;;;;;;4.50;1.63;;;7.60;99.90;;;;;;4956177;28;20460;-75
2022/01/04 15:47:38;;;;;;;1.40;1.40;;;7.50;99.90;;;;;;4957667;28;20546;-76
2022/01/04 15:50:06;;;;;;;1.27;1.27;;;7.50;99.90;;;;;;4959747;28;20483;-78
2022/01/04 15:52:33;;;;;;;1.20;1.20;;;7.50;99.90;;;;;;4959642;28;20483;-70
2022/01/04 15:55:03;;;;;;;1.13;1.13;;;7.50;99.90;;;;;;4959789;28;20459;-72
2022/01/04 15:57:29;;;;;;;1.47;1.47;;;7.60;99.90;;;;;;4960387;28;20461;-74
2022/01/04 15:59:56;;;;;;;1.50;1.50;;;7.50;99.90;;;;;;4965062;28;20456;-74
2022/01/04 16:02:28;;;;;;;1.70;1.60;;;7.60;99.90;;;;;;4965753;28;20483;-75
2022/01/04 16:04:54;;;;;;;1.83;1.73;;;7.50;99.90;;;;;;4967330;28;20907;-75
2022/01/04 16:07:21;;;;;;;1.37;1.37;;;7.50;99.90;;;;;;4970754;28;20460;-75
2022/01/04 16:09:49;;;;;;;2.07;1.50;;;7.40;99.90;;;;;;4965695;28;20456;-75
2022/01/04 16:12:17;;;;;;;1.93;1.70;;;7.40;99.90;;;;;;4959908;28;20472;-75
2022/01/04 16:14:44;;;;;;;1.30;1.30;;;7.40;99.90;;;;;;4958943;28;20484;-75
2022/01/04 16:17:21;;;;;;;1.60;1.50;;;7.50;99.90;;;;;;4958988;28;20546;-75
2022/01/04 16:22:34;;;;;;;1.00;1.00;;;7.50;99.90;;;;;;4959403;29;20499;-73
2022/01/04 16:25:01;;;;;;;1.50;1.40;;;7.40;99.90;;;;;;4959227;28;20460;-71
2022/01/04 16:27:28;;;;;;;1.33;1.30;;;7.40;99.90;;;;;;4959346;28;20860;-71
2022/01/04 16:29:56;;;;;;;1.13;1.13;;;7.40;99.90;;;;;;4959125;28;20462;-70
2022/01/04 16:32:24;;;;;;;0.90;0.90;;;7.50;99.90;;;;;;4958784;28;20472;-72
2022/01/04 16:34:52;;;;;;;0.97;0.97;;;7.60;99.90;;;;;;4958881;28;20912;-72
2022/01/04 16:37:19;;;;;;;1.00;1.00;;;7.70;99.90;;;;;;4959062;28;20451;-73
2022/01/04 16:39:46;;;;;;;1.30;1.20;;;7.60;99.90;;;;;;4959634;28;20456;-73
2022/01/04 16:42:13;;;;;;;0.90;0.90;;;7.70;99.90;;;;;;4961125;28;20503;-75
2022/01/04 16:44:40;;;;;;;0.57;0.57;;;7.70;99.90;;;;;;4962325;28;20456;-75
2022/01/04 16:47:07;;;;;;;0.80;0.80;;;7.60;99.90;;;;;;4969617;28;20813;-75
2022/01/04 16:49:35;;;;;;;0.73;0.73;;;7.40;99.90;;;;;;4977736;28;20448;-77
2022/01/04 16:52:03;;;;;;;0.87;0.87;;;7.40;99.90;;;;;;4977227;28;20498;-76
2022/01/04 16:54:31;;;;;;;0.80;0.80;;;7.30;99.90;;;;;;4979500;28;20444;-76
2022/01/04 16:57:00;;;;;;;0.80;0.80;;;7.20;99.90;;;;;;4960972;28;20908;-76
2022/01/04 16:59:27;;;;;;;0.73;0.73;;;7.20;99.90;;;;;;4959737;28;20468;-76
2022/01/04 17:01:53;;;;;;;1.30;1.20;;;7.10;99.90;;;;;;4960454;28;20495;-75
2022/01/04 17:04:22;;;;;;;1.47;1.37;;;7.10;99.90;;;;;;4959425;28;20844;-75
2022/01/04 17:06:51;;;;;;;3.43;1.13;;;7.20;99.90;;;;;;4959663;28;20460;-75
2022/01/04 17:09:22;;;;;;;1.50;1.40;;;7.10;99.90;;;;;;4959264;28;20463;-76
2022/01/04 17:11:54;;;;;;;1.57;1.47;;;7.10;99.90;;;;;;4958961;28;20514;-75
2022/01/04 17:17:06;;;;;;;1.73;1.63;;;7.00;99.90;;;;;;4958570;29;20427;-75
2022/01/04 17:19:33;;;;;;;1.93;1.80;;;7.00;99.90;;;;;;4958393;28;20474;-75
2022/01/04 17:22:00;;;;;;;2.40;1.80;;;7.10;99.90;;;;;;4957934;28;20484;-76
2022/01/04 17:24:28;;;;;;;1.80;1.70;;;7.10;99.90;;;;;;4957714;28;20971;-76
2022/01/04 17:26:55;;;;;;;1.67;1.67;;;7.10;99.90;;;;;;4957748;28;20822;-77
2022/01/04 17:29:23;;;;;;;3.67;2.20;;;7.10;99.90;;;;;;4958640;28;20471;-76
2022/01/04 17:31:51;;;;;;;3.43;1.93;;;7.10;99.90;;;;;;4957563;28;20487;-76
2022/01/04 17:34:18;;;;;;;3.00;2.80;;;7.20;99.90;;;;;;4957903;28;20456;-76
2022/01/04 17:36:44;;;;;;;3.73;3.13;;;7.20;99.90;;;;;;4957641;28;20962;-75
2022/01/04 17:39:11;;;;;;;3.97;3.67;;;7.30;99.90;;;;;;4959251;28;20456;-76
2022/01/04 17:41:39;;;;;;;3.33;3.13;;;7.30;99.90;;;;;;4958391;28;20480;-76
2022/01/04 17:44:06;;;;;;;3.80;3.50;;;7.30;99.90;;;;;;4958359;28;20503;-75
2022/01/04 17:46:33;;;;;;;12.53;9.70;;;7.30;99.90;;;;;;4958304;28;20460;-71
2022/01/04 17:49:00;;;;;;;4.70;4.03;;;7.50;99.90;;;;;;4958370;28;20448;-73
2022/01/04 17:51:27;;;;;;;3.00;2.80;;;7.90;99.90;;;;;;4958281;28;20484;-72
2022/01/04 17:53:54;;;;;;;2.43;2.33;;;8.60;99.90;;;;;;4958603;28;20453;-75
2022/01/04 17:56:20;;;;;;;1.93;1.83;;;8.90;99.90;;;;;;4959024;28;20467;-75
2022/01/04 17:58:51;;;;;;;2.00;1.80;;;8.80;99.90;;;;;;4959753;28;20455;-75
2022/01/04 18:01:18;;;;;;;2.13;2.03;;;8.60;99.90;;;;;;4959113;28;20489;-75
2022/01/04 18:03:45;;;;;;;2.47;2.27;;;8.20;99.90;;;;;;4960305;28;20488;-74
2022/01/04 18:06:13;;;;;;;3.07;2.87;;;8.00;99.90;;;;;;4959557;29;20535;-75
2022/01/04 18:08:40;;;;;;;3.07;2.87;;;7.80;99.90;;;;;;4961397;28;20464;-76